createdAt,value
2022-12-14T00:01:54.259Z,-6.98
2022-12-14T00:04:22.245Z,-7.08
2022-12-14T00:06:49.962Z,-7.19
2022-12-14T00:09:18.058Z,-7.20
2022-12-14T00:11:45.921Z,-7.30
2022-12-14T00:14:13.891Z,-7.25
2022-12-14T00:16:41.598Z,-7.38
2022-12-14T00:19:11.835Z,-7.29
2022-12-14T00:21:39.610Z,-7.53
2022-12-14T00:24:07.632Z,-7.45
2022-12-14T00:26:35.346Z,-7.51
2022-12-14T00:29:03.631Z,-7.71
2022-12-14T00:31:32.667Z,-7.81
2022-12-14T00:34:01.375Z,-7.85
2022-12-14T00:36:31.870Z,-7.86
2022-12-14T00:39:00.427Z,-7.97
2022-12-14T00:41:28.789Z,-8.06
2022-12-14T00:43:57.241Z,-8.22
2022-12-14T00:46:25.365Z,-8.43
2022-12-14T00:48:53.496Z,-8.45
2022-12-14T00:51:22.973Z,-8.41
2022-12-14T00:53:51.001Z,-8.43
2022-12-14T00:56:18.766Z,-8.46
2022-12-14T00:58:53.881Z,-8.54
2022-12-14T01:01:22.407Z,-8.56
2022-12-14T01:03:50.856Z,-8.61
2022-12-14T01:06:23.883Z,-8.69
2022-12-14T01:08:51.920Z,-8.71
2022-12-14T01:11:19.601Z,-8.82
2022-12-14T01:13:49.615Z,-9.09
2022-12-14T01:16:17.814Z,-9.14
2022-12-14T01:18:45.861Z,-9.13
2022-12-14T01:21:19.991Z,-9.05
2022-12-14T01:23:51.256Z,-9.03
2022-12-14T01:26:20.098Z,-9.07
2022-12-14T01:28:52.429Z,-9.15
2022-12-14T01:31:23.170Z,-9.14
2022-12-14T01:33:51.198Z,-9.32
2022-12-14T01:36:21.924Z,-9.33
2022-12-14T01:38:54.835Z,-9.31
2022-12-14T01:41:39.745Z,-9.30
2022-12-14T01:44:10.855Z,-9.44
2022-12-14T01:46:41.712Z,-9.54
2022-12-14T01:49:28.774Z,-9.57
2022-12-14T01:52:12.509Z,-9.62
2022-12-14T01:54:52.401Z,-9.58
2022-12-14T01:57:26.592Z,-9.59
2022-12-14T02:00:00.916Z,-9.73
2022-12-14T02:02:33.221Z,-9.71
2022-12-14T02:05:02.967Z,-9.70
2022-12-14T02:07:32.137Z,-9.82
2022-12-14T02:10:04.629Z,-9.83
2022-12-14T02:12:48.028Z,-9.86
2022-12-14T02:15:16.575Z,-9.86
2022-12-14T02:17:47.151Z,-9.92
2022-12-14T02:20:16.467Z,-9.98
2022-12-14T02:23:05.035Z,-9.95
2022-12-14T02:25:42.875Z,-9.99
2022-12-14T02:28:22.837Z,-9.99
2022-12-14T02:31:39.962Z,-10.09
2022-12-14T02:34:14.234Z,-9.91
2022-12-14T02:37:04.121Z,-9.95
2022-12-14T02:40:13.164Z,-9.99
2022-12-14T02:42:59.053Z,-9.97
2022-12-14T02:45:37.183Z,-9.97
2022-12-14T02:48:14.047Z,-10.06
2022-12-14T02:50:54.997Z,-10.01
2022-12-14T02:53:36.427Z,-10.06
2022-12-14T02:56:09.511Z,-10.13
2022-12-14T02:58:41.512Z,-10.26
2022-12-14T03:01:14.651Z,-10.30
2022-12-14T03:03:43.232Z,-10.36
2022-12-14T03:06:26.102Z,-10.12
2022-12-14T03:09:05.219Z,-10.12
2022-12-14T03:12:01.153Z,-10.12
2022-12-14T03:14:50.557Z,-10.03
2022-12-14T03:17:24.791Z,-10.12
2022-12-14T03:20:06.394Z,-10.14
2022-12-14T03:22:39.718Z,-10.26
2022-12-14T03:25:16.169Z,-10.28
2022-12-14T03:27:53.595Z,-10.15
2022-12-14T03:30:44.283Z,-10.19
2022-12-14T03:33:17.171Z,-10.19
2022-12-14T03:36:02.337Z,-10.24
2022-12-14T03:38:33.868Z,-10.12
2022-12-14T03:41:14.154Z,-9.98
2022-12-14T03:43:56.826Z,-10.22
2022-12-14T03:46:51.163Z,-10.24
2022-12-14T03:49:40.600Z,-10.31
2022-12-14T03:52:21.210Z,-10.36
2022-12-14T03:55:11.133Z,-10.42
2022-12-14T03:57:45.037Z,-10.46
2022-12-14T04:00:24.280Z,-10.51
2022-12-14T04:03:07.347Z,-10.59
2022-12-14T04:05:47.061Z,-10.51
2022-12-14T04:08:40.246Z,-10.56
2022-12-14T04:11:37.651Z,-10.45
2022-12-14T04:14:38.853Z,-10.23
2022-12-14T04:17:32.291Z,-10.37
2022-12-14T04:20:09.877Z,-10.55
2022-12-14T04:22:46.366Z,-10.57
2022-12-14T04:25:41.931Z,-10.53
2022-12-14T04:28:53.403Z,-10.46
2022-12-14T04:31:25.703Z,-10.58
2022-12-14T04:33:58.761Z,-10.80
2022-12-14T04:36:33.269Z,-10.43
2022-12-14T04:39:08.986Z,-10.30
2022-12-14T04:41:43.654Z,-10.47
2022-12-14T04:44:21.884Z,-10.58
2022-12-14T04:46:53.523Z,-10.74
2022-12-14T04:49:32.145Z,-10.66
2022-12-14T04:52:06.111Z,-10.61
2022-12-14T04:54:45.318Z,-10.62
2022-12-14T04:57:34.237Z,-10.67
2022-12-14T05:00:02.525Z,-10.54
2022-12-14T05:02:57.008Z,-10.61
2022-12-14T05:05:33.968Z,-10.60
2022-12-14T05:08:11.877Z,-10.64
2022-12-14T05:10:44.789Z,-10.66
2022-12-14T05:13:19.706Z,-10.50
2022-12-14T05:15:50.312Z,-10.42
2022-12-14T05:18:18.892Z,-10.35
2022-12-14T05:20:47.814Z,-10.44
2022-12-14T05:23:16.788Z,-10.24
2022-12-14T05:25:44.540Z,-9.98
2022-12-14T05:28:17.318Z,-10.13
2022-12-14T05:30:47.088Z,-10.18
2022-12-14T05:33:21.037Z,-10.16
2022-12-14T05:35:48.751Z,-10.16
2022-12-14T05:38:16.700Z,-10.14
2022-12-14T05:40:44.452Z,-10.11
2022-12-14T05:43:13.157Z,-10.13
2022-12-14T05:45:40.955Z,-10.14
2022-12-14T05:48:08.904Z,-10.05
2022-12-14T05:50:36.670Z,-9.96
2022-12-14T05:53:04.645Z,-9.87
2022-12-14T05:55:32.376Z,-9.95
2022-12-14T05:58:00.290Z,-9.75
2022-12-14T06:00:27.983Z,-9.65
2022-12-14T06:02:56.056Z,-9.57
2022-12-14T06:05:24.034Z,-9.35
2022-12-14T06:07:51.983Z,-9.21
2022-12-14T06:10:19.622Z,-9.20
2022-12-14T06:12:47.567Z,-9.27
2022-12-14T06:15:15.407Z,-9.11
2022-12-14T06:17:47.387Z,-9.02
2022-12-14T06:20:15.348Z,-9.19
2022-12-14T06:22:47.574Z,-9.14
2022-12-14T06:25:16.027Z,-8.96
2022-12-14T06:27:43.956Z,-9.32
2022-12-14T06:30:12.377Z,-9.38
2022-12-14T06:32:40.441Z,-9.38
2022-12-14T06:35:08.745Z,-9.42
2022-12-14T06:37:36.791Z,-9.53
2022-12-14T06:40:05.017Z,-9.61
2022-12-14T06:42:32.980Z,-9.62
2022-12-14T06:45:00.693Z,-9.65
2022-12-14T06:47:28.739Z,-9.77
2022-12-14T06:49:56.391Z,-9.70
2022-12-14T06:52:26.873Z,-9.85
2022-12-14T06:54:55.125Z,-9.68
2022-12-14T06:57:23.168Z,-9.75
2022-12-14T06:59:51.049Z,-9.67
2022-12-14T07:02:19.145Z,-9.61
2022-12-14T07:04:47.035Z,-9.71
2022-12-14T07:07:15.025Z,-9.71
2022-12-14T07:09:42.688Z,-9.90
2022-12-14T07:12:10.644Z,-9.90
2022-12-14T07:14:38.279Z,-9.86
2022-12-14T07:17:06.292Z,-9.73
2022-12-14T07:19:34.056Z,-9.68
2022-12-14T07:22:04.242Z,-9.60
2022-12-14T07:24:32.110Z,-9.34
2022-12-14T07:27:00.467Z,-9.60
2022-12-14T07:29:34.141Z,-9.40
2022-12-14T07:32:03.293Z,-9.28
2022-12-14T07:34:31.099Z,-9.27
2022-12-14T07:36:59.417Z,-8.96
2022-12-14T07:39:27.195Z,-8.62
2022-12-14T07:41:55.359Z,-8.30
2022-12-14T07:44:23.099Z,-8.15
2022-12-14T07:46:51.163Z,-7.90
2022-12-14T07:49:18.928Z,-7.67
2022-12-14T07:51:47.068Z,-7.33
2022-12-14T07:54:15.015Z,-7.22
2022-12-14T07:56:44.737Z,-7.02
2022-12-14T07:59:15.408Z,-6.94
2022-12-14T08:01:43.956Z,-6.93
2022-12-14T08:04:15.267Z,-6.69
2022-12-14T08:06:43.699Z,-6.09
2022-12-14T08:09:12.798Z,-5.73
2022-12-14T08:11:41.215Z,-5.13
2022-12-14T08:14:17.416Z,-4.82
2022-12-14T08:16:47.006Z,-4.51
2022-12-14T08:19:15.320Z,-4.62
2022-12-14T08:21:45.398Z,-4.42
2022-12-14T08:24:14.625Z,-4.49
2022-12-14T08:26:42.812Z,-4.33
2022-12-14T08:29:15.467Z,-4.68
2022-12-14T08:31:44.083Z,-4.78
2022-12-14T08:34:12.049Z,-4.68
2022-12-14T08:53:54.655Z,-4.71
2022-12-14T08:56:25.570Z,-4.24
2022-12-14T08:58:53.843Z,-3.30
2022-12-14T09:01:30.349Z,-2.36
2022-12-14T09:04:07.852Z,-1.49
2022-12-14T09:06:38.597Z,-0.85
2022-12-14T09:09:15.538Z,-0.13
2022-12-14T09:11:45.506Z,0.40
2022-12-14T09:14:13.668Z,1.10
2022-12-14T09:16:41.963Z,1.25
2022-12-14T09:19:09.851Z,1.41
2022-12-14T09:21:38.560Z,1.55
2022-12-14T09:24:07.142Z,1.48
2022-12-14T09:26:35.176Z,1.61
2022-12-14T09:29:02.999Z,1.82
2022-12-14T09:31:31.022Z,2.15
2022-12-14T09:33:59.636Z,2.28
2022-12-14T09:36:28.930Z,2.13
2022-12-14T09:38:57.945Z,2.12
2022-12-14T09:41:35.392Z,2.53
2022-12-14T09:44:38.638Z,2.84
2022-12-14T09:47:10.833Z,2.90
2022-12-14T09:49:47.449Z,2.76
2022-12-14T09:52:39.084Z,2.48
2022-12-14T09:55:39.267Z,3.04
2022-12-14T09:58:13.964Z,3.28
2022-12-14T10:01:11.279Z,3.13
2022-12-14T10:04:06.505Z,2.70
2022-12-14T10:06:39.445Z,2.70
2022-12-14T10:09:30.442Z,2.74
2022-12-14T10:12:32.501Z,2.63
2022-12-14T10:15:19.228Z,2.63
2022-12-14T10:18:01.938Z,2.50
2022-12-14T10:20:42.519Z,2.41
2022-12-14T10:23:21.098Z,2.43
2022-12-14T10:26:07.977Z,2.13
2022-12-14T10:28:38.879Z,2.12
2022-12-14T10:31:12.040Z,2.11
2022-12-14T10:33:45.021Z,2.16
2022-12-14T10:36:30.784Z,1.73
2022-12-14T10:39:01.908Z,1.38
2022-12-14T10:42:01.562Z,1.33
2022-12-14T10:44:53.474Z,0.72
2022-12-14T10:47:43.808Z,-0.32
2022-12-14T10:50:20.988Z,-1.20
2022-12-14T10:52:54.292Z,-1.87
2022-12-14T10:55:33.676Z,-2.14
2022-12-14T10:58:01.655Z,-2.41
2022-12-14T11:00:29.449Z,-2.53
2022-12-14T11:02:58.947Z,-2.67
2022-12-14T11:05:36.936Z,-2.82
2022-12-14T11:08:08.005Z,-2.77
2022-12-14T11:10:39.681Z,-2.74
2022-12-14T11:13:13.838Z,-2.79
2022-12-14T11:15:46.598Z,-2.83
2022-12-14T11:18:17.532Z,-2.84
2022-12-14T11:21:00.353Z,-2.78
2022-12-14T11:23:38.458Z,-2.86
2022-12-14T11:26:20.861Z,-2.94
2022-12-14T11:28:58.675Z,-2.87
2022-12-14T11:31:40.387Z,-3.02
2022-12-14T11:34:41.366Z,-2.94
2022-12-14T11:37:20.891Z,-2.85
2022-12-14T11:39:59.919Z,-2.82
2022-12-14T11:42:28.338Z,-2.78
2022-12-14T11:45:36.252Z,-2.87
2022-12-14T11:48:16.046Z,-2.71
2022-12-14T11:50:46.028Z,-2.66
2022-12-14T11:53:17.388Z,-2.95
2022-12-14T11:55:52.442Z,-2.83
2022-12-14T11:58:32.328Z,-3.00
2022-12-14T12:01:05.083Z,-2.95
2022-12-14T12:03:38.089Z,-2.95
2022-12-14T12:06:11.106Z,-3.15
2022-12-14T12:08:41.188Z,-2.98
2022-12-14T12:11:22.701Z,-3.15
2022-12-14T12:14:03.639Z,-3.02
2022-12-14T12:16:33.197Z,-3.05
2022-12-14T12:19:05.201Z,-3.08
2022-12-14T12:21:45.174Z,-3.25
2022-12-14T12:24:38.775Z,-2.95
2022-12-14T12:27:16.596Z,-3.09
2022-12-14T12:30:16.099Z,-3.13
2022-12-14T12:32:50.417Z,-3.29
2022-12-14T12:35:40.001Z,-3.27
2022-12-14T12:38:43.460Z,-3.23
2022-12-14T12:41:44.687Z,-3.44
2022-12-14T12:44:30.084Z,-3.47
2022-12-14T12:47:29.931Z,-3.43
2022-12-14T12:50:14.227Z,-3.55
2022-12-14T12:53:28.835Z,-3.49
2022-12-14T12:56:11.520Z,-3.56
2022-12-14T12:58:40.915Z,-3.50
2022-12-14T13:01:34.601Z,-3.53
2022-12-14T13:04:11.536Z,-3.63
2022-12-14T13:06:41.072Z,-3.54
2022-12-14T13:09:50.064Z,-3.63
2022-12-14T13:12:36.563Z,-3.70
2022-12-14T13:15:14.082Z,-3.62
2022-12-14T13:17:54.410Z,-3.80
2022-12-14T13:20:28.382Z,-3.87
2022-12-14T13:23:05.741Z,-3.92
2022-12-14T13:26:28.103Z,-4.02
2022-12-14T13:29:39.389Z,-4.05
2022-12-14T13:32:18.692Z,-4.14
2022-12-14T13:35:05.700Z,-4.37
2022-12-14T13:37:51.237Z,-4.17
2022-12-14T13:40:37.780Z,-4.29
2022-12-14T13:43:16.002Z,-4.28
2022-12-14T13:45:47.789Z,-4.42
2022-12-14T13:48:25.149Z,-4.38
2022-12-14T13:51:42.085Z,-4.73
2022-12-14T13:54:26.412Z,-4.68
2022-12-14T13:57:06.508Z,-4.67
2022-12-14T13:59:45.073Z,-4.68
2022-12-14T14:02:39.584Z,-5.07
2022-12-14T14:05:18.824Z,-5.13
2022-12-14T14:07:53.780Z,-5.17
2022-12-14T14:10:34.561Z,-5.30
2022-12-14T14:13:27.473Z,-5.43
2022-12-14T14:16:27.994Z,-5.38
2022-12-14T14:19:18.713Z,-5.26
2022-12-14T14:22:26.456Z,-5.31
2022-12-14T14:26:02.499Z,-5.56
2022-12-14T14:28:31.290Z,-5.74
2022-12-14T14:30:59.927Z,-5.75
2022-12-14T14:33:45.510Z,-5.95
2022-12-14T14:36:33.431Z,-5.89
2022-12-14T14:39:18.940Z,-5.75
2022-12-14T14:41:54.526Z,-5.86
2022-12-14T14:44:37.748Z,-5.95
2022-12-14T14:47:15.790Z,-6.05
2022-12-14T14:49:44.429Z,-6.09
2022-12-14T14:52:39.697Z,-6.15
2022-12-14T14:58:37.130Z,-6.33
2022-12-14T15:01:08.066Z,-6.44
2022-12-14T15:04:15.714Z,-6.33
2022-12-14T15:06:51.184Z,-6.67
2022-12-14T15:09:30.686Z,-6.58
2022-12-14T15:12:19.091Z,-6.43
2022-12-14T15:14:53.778Z,-6.43
2022-12-14T15:17:23.948Z,-6.59
2022-12-14T15:19:55.905Z,-6.52
2022-12-14T15:22:30.556Z,-6.55
2022-12-14T15:25:01.439Z,-6.30
2022-12-14T15:27:38.113Z,-6.53
2022-12-14T15:30:12.400Z,-6.39
2022-12-14T15:32:57.299Z,-6.57
2022-12-14T15:35:34.389Z,-6.49
2022-12-14T15:38:07.888Z,-6.42
2022-12-14T15:40:36.104Z,-6.54
2022-12-14T15:43:17.472Z,-6.54
2022-12-14T15:45:48.718Z,-6.65
2022-12-14T15:48:31.116Z,-6.59
2022-12-14T15:51:05.201Z,-6.53
2022-12-14T15:53:51.580Z,-6.68
2022-12-14T15:56:30.497Z,-6.39
2022-12-14T15:59:13.450Z,-6.41
2022-12-14T16:01:47.386Z,-6.40
2022-12-14T16:04:22.903Z,-6.55
2022-12-14T16:07:26.935Z,-6.47
2022-12-14T16:10:02.037Z,-6.25
2022-12-14T16:12:45.441Z,-6.31
2022-12-14T16:15:27.545Z,-6.49
2022-12-14T16:18:02.711Z,-6.41
2022-12-14T16:20:34.025Z,-6.33
2022-12-14T16:23:13.685Z,-6.39
2022-12-14T16:26:02.915Z,-6.15
2022-12-14T16:28:37.798Z,-6.23
2022-12-14T16:31:19.981Z,-6.10
2022-12-14T16:34:06.064Z,-6.07
2022-12-14T16:36:36.870Z,-6.07
2022-12-14T16:39:15.207Z,-6.00
2022-12-14T16:41:52.060Z,-6.05
2022-12-14T16:44:23.997Z,-6.03
2022-12-14T16:47:11.941Z,-5.86
2022-12-14T16:49:42.081Z,-5.91
2022-12-14T16:52:26.940Z,-5.87
2022-12-14T16:55:17.084Z,-5.77
2022-12-14T16:57:58.828Z,-5.97
2022-12-14T17:00:30.031Z,-5.96
2022-12-14T17:03:03.962Z,-5.80
2022-12-14T17:05:39.789Z,-5.66
2022-12-14T17:08:08.684Z,-5.74
2022-12-14T17:10:38.835Z,-5.84
2022-12-14T17:13:06.573Z,-5.85
2022-12-14T17:15:35.730Z,-5.94
2022-12-14T17:18:07.176Z,-5.99
2022-12-14T17:20:39.426Z,-5.77
2022-12-14T17:23:14.872Z,-5.94
2022-12-14T17:25:46.305Z,-5.71
2022-12-14T17:28:34.799Z,-5.66
2022-12-14T17:31:03.509Z,-5.89
2022-12-14T17:33:32.408Z,-5.71
2022-12-14T17:36:00.717Z,-5.59
2022-12-14T17:38:28.425Z,-5.67
2022-12-14T17:40:56.663Z,-5.59
2022-12-14T17:43:27.658Z,-5.62
2022-12-14T17:45:56.668Z,-5.72
2022-12-14T17:48:24.457Z,-5.57
2022-12-14T17:50:52.442Z,-5.55
2022-12-14T17:53:28.040Z,-5.57
2022-12-14T17:55:56.317Z,-5.56
2022-12-14T17:58:24.090Z,-5.53
2022-12-14T18:01:01.463Z,-5.76
2022-12-14T18:03:36.802Z,-5.68
2022-12-14T18:06:05.564Z,-5.51
2022-12-14T18:08:33.391Z,-5.45
2022-12-14T18:11:10.224Z,-5.26
2022-12-14T18:13:42.184Z,-5.19
2022-12-14T18:16:15.973Z,-5.29
2022-12-14T18:18:45.950Z,-5.27
2022-12-14T18:21:18.401Z,-5.14
2022-12-14T18:23:47.667Z,-5.31
2022-12-14T18:26:22.187Z,-5.16
2022-12-14T18:28:52.036Z,-5.27
2022-12-14T18:31:27.222Z,-5.25
2022-12-14T18:33:55.480Z,-5.17
2022-12-14T18:36:23.847Z,-5.15
2022-12-14T18:38:52.202Z,-5.01
2022-12-14T18:41:24.244Z,-5.09
2022-12-14T18:43:52.670Z,-5.09
2022-12-14T18:46:20.839Z,-4.91
2022-12-14T18:48:48.614Z,-4.78
2022-12-14T18:51:26.710Z,-4.92
2022-12-14T18:53:56.657Z,-4.98
2022-12-14T18:56:28.114Z,-4.93
2022-12-14T18:58:56.656Z,-4.99
2022-12-14T19:01:25.667Z,-4.77
2022-12-14T19:03:53.626Z,-4.79
2022-12-14T19:09:14.260Z,-4.79
2022-12-14T19:11:42.608Z,-4.63
2022-12-14T19:14:11.273Z,-4.75
2022-12-14T19:16:39.748Z,-4.78
2022-12-14T19:19:07.466Z,-4.73
2022-12-14T19:21:35.540Z,-4.68
2022-12-14T19:24:03.422Z,-4.60
2022-12-14T19:26:31.785Z,-4.66
2022-12-14T19:28:59.557Z,-4.69
2022-12-14T19:31:27.625Z,-4.57
2022-12-14T19:33:55.931Z,-4.43
2022-12-14T19:36:24.682Z,-4.51
2022-12-14T19:38:52.567Z,-4.45
2022-12-14T19:41:21.493Z,-4.40
2022-12-14T19:43:49.609Z,-4.36
2022-12-14T19:46:18.325Z,-4.39
2022-12-14T19:48:46.624Z,-4.31
2022-12-14T19:51:14.962Z,-4.29
2022-12-14T19:53:44.877Z,-4.23
2022-12-14T19:56:16.937Z,-4.27
2022-12-14T19:58:45.148Z,-4.18
2022-12-14T20:01:16.441Z,-4.17
2022-12-14T20:03:44.657Z,-4.30
2022-12-14T20:06:12.891Z,-4.26
2022-12-14T20:08:40.682Z,-4.16
2022-12-14T20:11:11.141Z,-4.11
2022-12-14T20:13:39.250Z,-4.10
2022-12-14T20:16:07.595Z,-4.07
2022-12-14T20:18:35.375Z,-4.09
2022-12-14T20:21:07.066Z,-3.96
2022-12-14T20:23:36.640Z,-4.12
2022-12-14T20:26:10.862Z,-4.07
2022-12-14T20:28:38.807Z,-4.05
2022-12-14T20:31:08.753Z,-4.12
2022-12-14T20:33:37.304Z,-4.17
2022-12-14T20:36:05.956Z,-4.20
2022-12-14T20:38:33.862Z,-4.15
2022-12-14T20:41:11.033Z,-4.10
2022-12-14T20:43:41.590Z,-4.34
2022-12-14T20:46:43.517Z,-4.22
2022-12-14T20:49:22.586Z,-4.17
2022-12-14T20:51:50.668Z,-4.16
2022-12-14T20:54:19.905Z,-4.16
2022-12-14T20:56:49.628Z,-4.11
2022-12-14T20:59:17.886Z,-4.03
2022-12-14T21:01:51.677Z,-4.08
2022-12-14T21:04:21.593Z,-4.04
2022-12-14T21:06:49.701Z,-4.11
2022-12-14T21:09:17.483Z,-3.92
2022-12-14T21:12:08.639Z,-3.96
2022-12-14T21:14:42.570Z,-4.00
2022-12-14T21:17:11.351Z,-3.97
2022-12-14T21:19:39.714Z,-3.87
2022-12-14T21:22:11.368Z,-3.84
2022-12-14T21:27:30.233Z,-3.83
2022-12-14T21:29:58.090Z,-3.75
2022-12-14T21:32:26.612Z,-3.79
2022-12-14T21:34:54.401Z,-3.71
2022-12-14T21:37:23.345Z,-3.65
2022-12-14T21:39:54.996Z,-3.68
2022-12-14T21:42:24.820Z,-3.88
2022-12-14T21:44:53.742Z,-3.94
2022-12-14T21:47:25.930Z,-3.80
2022-12-14T21:49:54.459Z,-3.86
2022-12-14T21:52:25.354Z,-3.61
2022-12-14T21:54:53.308Z,-3.76
2022-12-14T21:57:42.580Z,-3.71
2022-12-14T22:00:11.537Z,-3.58
2022-12-14T22:02:42.949Z,-3.45
2022-12-14T22:05:11.586Z,-3.52
2022-12-14T22:07:39.659Z,-3.63
2022-12-14T22:10:07.769Z,-3.55
2022-12-14T22:12:35.824Z,-3.70
2022-12-14T22:15:03.889Z,-3.57
2022-12-14T22:17:31.909Z,-3.45
2022-12-14T22:19:59.840Z,-3.51
2022-12-14T22:22:27.813Z,-3.51
2022-12-14T22:24:55.566Z,-3.45
2022-12-14T22:27:23.557Z,-3.44
2022-12-14T22:29:51.313Z,-3.42
2022-12-14T22:32:19.332Z,-3.44
2022-12-14T22:34:47.148Z,-3.54
2022-12-14T22:37:16.816Z,-3.43
2022-12-14T22:39:48.146Z,-3.40
2022-12-14T22:42:16.672Z,-3.50
2022-12-14T22:44:44.459Z,-3.42
2022-12-14T22:47:12.520Z,-3.48
2022-12-14T22:49:40.273Z,-3.52
2022-12-14T22:52:08.293Z,-3.33
2022-12-14T22:54:37.989Z,-3.24
2022-12-14T22:57:12.205Z,-3.31
2022-12-14T22:59:48.491Z,-3.25
2022-12-14T23:02:16.772Z,-3.32
2022-12-14T23:04:44.949Z,-3.19
2022-12-14T23:07:12.983Z,-3.13
2022-12-14T23:09:59.132Z,-3.09
2022-12-14T23:12:45.748Z,-3.04
2022-12-14T23:15:32.210Z,-3.19
2022-12-14T23:18:23.821Z,-3.31
2022-12-14T23:21:10.527Z,-3.13
2022-12-14T23:23:59.033Z,-3.21
2022-12-14T23:26:45.299Z,-3.26
2022-12-14T23:29:32.229Z,-3.21
2022-12-14T23:32:18.512Z,-3.19
2022-12-14T23:35:05.174Z,-3.10
2022-12-14T23:37:51.659Z,-3.33
2022-12-14T23:40:38.246Z,-3.26
2022-12-14T23:43:33.070Z,-2.91
2022-12-14T23:46:21.012Z,-3.17
2022-12-14T23:49:13.543Z,-3.09
2022-12-14T23:52:02.539Z,-3.01
2022-12-14T23:54:49.031Z,-3.29
2022-12-14T23:57:35.965Z,-3.11
